Time;durP1;ratioP1;P1;durP2;ratioP2;P2;SDS_P1;SDS_P2;PMS_P1;PMS_P2;Temp;Humidity;BMP_temperature;BMP_pressure;BME280_temperature;BME280_humidity;BME280_pressure;Samples;Min_cycle;Max_cycle;Signal;HPM_P1;HPM_P2
2022/03/30 03:15:11;;;;;;;3.05;1.82;;;;;;;19.41;43.41;98085.02;1908669;72;28135;-65
2022/03/30 03:18:01;;;;;;;4.33;2.00;;;;;;;19.74;42.88;98085.80;1905575;74;28217;-65
2022/03/30 03:20:51;;;;;;;1.97;1.87;;;;;;;20.50;41.60;98084.12;1894514;75;28228;-64
2022/03/30 03:23:41;;;;;;;3.95;1.90;;;;;;;21.13;40.34;98084.30;1885923;75;28117;-65
2022/03/30 03:26:29;;;;;;;1.80;1.70;;;;;;;21.64;39.22;98081.44;1881912;75;28134;-65
2022/03/30 03:29:18;;;;;;;1.80;1.70;;;;;;;22.05;38.30;98079.84;1902301;75;28239;-65
2022/03/30 03:32:07;;;;;;;3.10;1.80;;;;;;;22.39;37.51;98072.05;1902199;75;28126;-67
2022/03/30 03:34:55;;;;;;;4.78;2.80;;;;;;;22.62;37.01;98073.82;1884817;75;28138;-69
2022/03/30 03:37:44;;;;;;;6.33;2.92;;;;;;;22.23;37.07;98085.39;1869565;76;28176;-68
2022/03/30 03:40:33;;;;;;;3.12;2.80;;;;;;;21.88;37.54;98077.28;1891404;75;28710;-68
2022/03/30 03:43:22;;;;;;;4.22;3.20;;;;;;;21.69;37.80;98077.38;1891530;75;28183;-68
2022/03/30 03:46:10;;;;;;;4.58;2.98;;;;;;;21.47;38.19;98074.49;1872497;74;28185;-68
2022/03/30 03:48:58;;;;;;;5.17;3.02;;;;;;;21.30;38.48;98074.09;1909798;74;38454;-68
2022/03/30 03:51:47;;;;;;;6.90;3.08;;;;;;;21.08;39.04;98072.50;1896190;75;28097;-65
2022/03/30 03:54:35;;;;;;;4.08;2.90;;;;;;;20.92;39.27;98062.48;1889966;75;28086;-64
2022/03/30 03:57:24;;;;;;;3.80;2.60;;;;;;;21.17;39.17;98057.28;1869667;76;28138;-63
2022/03/30 04:00:15;;;;;;;3.95;2.47;;;;;;;21.43;38.67;98053.69;1871842;75;28176;-64
2022/03/30 04:03:03;;;;;;;3.08;2.40;;;;;;;21.69;38.22;98050.05;1895301;75;28660;-64
2022/03/30 04:05:52;;;;;;;3.17;2.10;;;;;;;21.89;37.80;98048.03;1891649;74;28095;-65
2022/03/30 04:08:40;;;;;;;3.22;2.08;;;;;;;22.05;37.47;98047.56;1870937;75;28178;-63
2022/03/30 04:11:29;;;;;;;3.10;2.15;;;;;;;22.20;37.25;98045.72;1868670;76;28250;-63
2022/03/30 04:14:17;;;;;;;2.02;1.75;;;;;;;22.38;36.99;98041.70;1888993;74;28455;-63
2022/03/30 04:17:06;;;;;;;1.95;1.77;;;;;;;22.51;36.71;98037.91;1879865;74;28268;-63
2022/03/30 04:19:54;;;;;;;3.17;1.80;;;;;;;22.64;36.47;98037.96;1802474;79;28395;-65
2022/03/30 04:22:44;;;;;;;2.67;1.90;;;;;;;22.76;36.22;98033.06;1876548;75;28129;-64
2022/03/30 04:25:33;;;;;;;2.30;1.90;;;;;;;22.86;36.03;98030.36;1879871;75;28230;-65
2022/03/30 04:28:21;;;;;;;2.08;1.90;;;;;;;22.92;35.78;98027.09;1884574;75;28195;-63
2022/03/30 04:31:11;;;;;;;2.20;1.90;;;;;;;23.00;35.67;98031.47;1868981;76;28161;-64
2022/03/30 04:33:59;;;;;;;2.08;1.87;;;;;;;23.08;35.52;98029.55;1868616;75;28114;-63
2022/03/30 04:36:48;;;;;;;2.85;1.90;;;;;;;23.14;35.35;98029.84;1872915;75;28230;-63
2022/03/30 04:39:39;;;;;;;1.57;1.47;;;;;;;23.16;35.26;98026.81;1882393;75;28247;-63
2022/03/30 04:42:30;;;;;;;2.40;1.95;;;;;;;23.26;35.17;98028.20;1880055;75;28202;-65
2022/03/30 04:45:19;;;;;;;1.90;1.60;;;;;;;23.29;35.03;98027.09;1879896;75;28241;-63
2022/03/30 04:48:08;;;;;;;1.97;1.63;;;;;;;23.33;34.94;98026.84;1890799;74;28107;-63
2022/03/30 04:50:56;;;;;;;2.05;1.60;;;;;;;23.38;34.83;98026.05;1869349;76;28158;-63
2022/03/30 04:53:45;;;;;;;2.10;1.80;;;;;;;23.41;34.76;98020.56;1879736;75;28119;-64
2022/03/30 04:56:34;;;;;;;2.25;1.50;;;;;;;23.45;34.69;98020.27;1879799;75;28277;-64
2022/03/30 04:59:22;;;;;;;1.80;1.70;;;;;;;23.50;34.60;98020.27;1881387;75;28108;-63
2022/03/30 05:02:10;;;;;;;1.87;1.77;;;;;;;23.52;34.53;98024.92;1869357;76;28169;-64
2022/03/30 05:04:58;;;;;;;1.70;1.60;;;;;;;23.53;34.47;98018.33;1890548;75;28116;-63
2022/03/30 05:07:47;;;;;;;2.10;1.80;;;;;;;23.55;34.43;98021.64;1868721;75;28255;-63
2022/03/30 05:10:35;;;;;;;1.75;1.65;;;;;;;23.56;34.40;98010.39;1869114;76;28305;-63
2022/03/30 05:13:24;;;;;;;1.60;1.50;;;;;;;23.56;34.36;98008.20;1868831;76;28253;-63
2022/03/30 05:16:12;;;;;;;1.70;1.60;;;;;;;23.60;34.34;98012.84;1835915;76;28377;-63
2022/03/30 05:19:02;;;;;;;1.98;1.57;;;;;;;23.66;34.27;98014.50;1830429;77;28268;-64
2022/03/30 05:21:51;;;;;;;1.60;1.50;;;;;;;23.72;34.10;98010.63;1852995;77;28174;-65
2022/03/30 05:24:39;;;;;;;1.55;1.45;;;;;;;23.73;34.14;98012.29;1823091;78;28247;-63
2022/03/30 05:27:27;;;;;;;1.60;1.50;;;;;;;23.76;34.08;98012.25;1841158;76;28203;-64
2022/03/30 05:30:16;;;;;;;1.60;1.50;;;;;;;23.77;34.08;98007.06;1828055;77;28276;-63
2022/03/30 05:33:05;;;;;;;1.70;1.60;;;;;;;23.81;34.01;98013.63;1826733;78;28225;-63
2022/03/30 05:35:53;;;;;;;1.80;1.60;;;;;;;23.77;33.98;98001.58;1821878;78;28274;-63
2022/03/30 05:38:41;;;;;;;1.85;1.60;;;;;;;23.84;33.93;98011.70;1844822;77;28235;-63
2022/03/30 05:41:30;;;;;;;1.50;1.40;;;;;;;23.83;33.92;98012.25;1836783;77;28236;-65
2022/03/30 05:44:19;;;;;;;1.80;1.70;;;;;;;23.84;33.92;98016.64;1821848;78;28258;-63
2022/03/30 05:47:09;;;;;;;2.60;1.65;;;;;;;23.83;33.92;98017.73;1835113;76;32258;-61
2022/03/30 05:49:58;;;;;;;2.42;1.67;;;;;;;23.85;33.96;98017.47;1892351;74;28165;-61
2022/03/30 05:52:47;;;;;;;2.02;1.57;;;;;;;23.86;34.09;98017.18;1879644;75;28147;-61
2022/03/30 05:55:36;;;;;;;1.60;1.50;;;;;;;23.93;34.02;98021.00;1877178;75;28298;-62
2022/03/30 05:58:24;;;;;;;1.70;1.60;;;;;;;23.96;34.08;98021.82;1867526;76;35408;-63
2022/03/30 06:01:12;;;;;;;2.93;1.57;;;;;;;23.97;34.06;98022.08;1875810;75;28101;-63
2022/03/30 06:04:01;;;;;;;1.70;1.60;;;;;;;23.98;34.02;98021.81;1869064;75;28044;-63
2022/03/30 06:06:52;;;;;;;1.70;1.50;;;;;;;24.00;34.05;98026.47;1879547;75;28198;-60
2022/03/30 06:09:40;;;;;;;2.97;1.47;;;;;;;24.03;34.06;98026.46;1889230;75;28275;-61
2022/03/30 06:12:29;;;;;;;1.98;1.87;;;;;;;24.07;34.05;98024.00;1901420;75;28213;-62
2022/03/30 06:15:17;;;;;;;1.70;1.60;;;;;;;24.08;34.09;98021.00;1874525;75;28241;-61
2022/03/30 06:18:10;;;;;;;1.72;1.52;;;;;;;24.11;34.12;98024.53;1886151;74;28293;-60
2022/03/30 06:20:56;;;;;;;4.25;1.80;;;;;;;24.12;34.15;98020.70;1876127;75;28625;-61
2022/03/30 06:23:45;;;;;;;1.90;1.50;;;;;;;24.14;34.14;98026.72;1888971;75;28101;-60
2022/03/30 06:26:34;;;;;;;1.67;1.50;;;;;;;24.16;34.08;98027.27;1869219;76;28178;-60
2022/03/30 06:29:22;;;;;;;2.50;1.50;;;;;;;24.15;34.05;98020.15;1898817;75;28119;-60
2022/03/30 06:32:10;;;;;;;1.50;1.40;;;;;;;24.14;34.02;98022.61;1880029;75;28179;-61
2022/03/30 06:34:59;;;;;;;1.62;1.52;;;;;;;24.18;33.99;98023.68;1882959;75;28607;-60
2022/03/30 06:37:48;;;;;;;2.10;1.60;;;;;;;24.16;33.98;98025.89;1869359;76;28658;-62
2022/03/30 06:40:37;;;;;;;3.20;1.50;;;;;;;24.13;34.01;98027.02;1890876;75;28176;-62
2022/03/30 06:43:25;;;;;;;4.53;1.77;;;;;;;24.16;34.03;98026.44;1862498;76;28194;-63
2022/03/30 06:46:15;;;;;;;1.77;1.62;;;;;;;24.14;34.02;98026.72;1880458;75;28159;-62
2022/03/30 06:49:03;;;;;;;1.70;1.60;;;;;;;24.14;34.08;98018.49;1901037;75;28191;-61
2022/03/30 06:51:52;;;;;;;2.30;1.50;;;;;;;24.15;34.05;98021.52;1873312;75;28182;-62
2022/03/30 06:54:41;;;;;;;1.60;1.50;;;;;;;24.15;34.06;98019.32;1844300;76;28223;-61
2022/03/30 06:57:29;;;;;;;1.80;1.50;;;;;;;24.14;34.06;98014.92;1895331;75;28116;-61
2022/03/30 07:00:18;;;;;;;2.25;1.55;;;;;;;24.13;34.15;98012.75;1891941;75;28198;-61
2022/03/30 07:03:06;;;;;;;1.70;1.60;;;;;;;24.12;34.15;98015.22;1878066;75;28163;-61
2022/03/30 07:05:56;;;;;;;1.60;1.50;;;;;;;24.11;34.19;98014.92;1879651;75;28178;-62
2022/03/30 07:11:50;;;;;;;1.55;1.45;;;;;;;24.12;34.27;98014.38;1881519;75;28184;-61
2022/03/30 07:14:39;;;;;;;2.00;1.60;;;;;;;24.11;34.34;98011.39;1895277;75;28098;-62
2022/03/30 07:17:30;;;;;;;1.75;1.65;;;;;;;24.08;34.37;97996.85;1890714;75;28141;-61
2022/03/30 07:20:20;;;;;;;1.60;1.50;;;;;;;24.09;34.38;97996.56;1886760;75;28126;-61
2022/03/30 07:23:10;;;;;;;1.90;1.45;;;;;;;24.07;34.40;97993.28;1869273;76;28254;-61
2022/03/30 07:26:00;;;;;;;1.97;1.50;;;;;;;24.05;34.44;97993.54;1891224;75;28570;-61
2022/03/30 07:28:48;;;;;;;2.50;1.60;;;;;;;24.05;34.48;97992.71;1890626;75;28205;-61
2022/03/30 07:31:37;;;;;;;1.70;1.60;;;;;;;24.04;34.49;97983.66;1867103;76;28248;-62
2022/03/30 07:34:26;;;;;;;1.52;1.42;;;;;;;24.06;34.49;97982.05;1880081;75;28142;-62
2022/03/30 07:37:14;;;;;;;1.60;1.50;;;;;;;24.07;34.49;97979.56;1901616;75;28098;-62
2022/03/30 07:40:04;;;;;;;1.60;1.50;;;;;;;24.06;34.49;97975.20;1901666;75;28169;-62
2022/03/30 07:42:54;;;;;;;1.70;1.60;;;;;;;24.05;34.48;97970.77;1867193;76;28697;-61
2022/03/30 07:45:42;;;;;;;1.80;1.50;;;;;;;24.05;34.49;97976.25;1845910;76;28201;-61
2022/03/30 07:48:30;;;;;;;1.57;1.47;;;;;;;24.05;34.53;97973.52;1871370;76;28266;-60
2022/03/30 07:51:19;;;;;;;1.70;1.45;;;;;;;24.08;34.48;97974.91;1809436;78;28440;-60
2022/03/30 07:54:08;;;;;;;1.85;1.60;;;;;;;24.07;34.48;97974.08;1883486;75;28222;-61
2022/03/30 07:56:57;;;;;;;1.72;1.62;;;;;;;24.08;34.46;97970.25;1879688;75;28177;-61
2022/03/30 07:59:45;;;;;;;1.52;1.42;;;;;;;24.08;34.47;97966.67;1901589;75;28117;-61
2022/03/30 08:02:35;;;;;;;1.50;1.40;;;;;;;24.06;34.46;97968.34;1883086;75;28214;-61
2022/03/30 08:05:23;;;;;;;2.05;1.50;;;;;;;24.04;34.46;97971.86;1869224;76;28250;-62
2022/03/30 08:08:12;;;;;;;1.67;1.50;;;;;;;24.07;34.45;97973.25;1868219;76;28210;-61
2022/03/30 08:11:00;;;;;;;1.70;1.60;;;;;;;24.08;34.43;97970.25;1864114;76;32125;-63
2022/03/30 08:13:48;;;;;;;1.80;1.40;;;;;;;24.10;34.39;97967.21;1886402;75;28238;-62
2022/03/30 08:16:37;;;;;;;1.92;1.52;;;;;;;24.06;34.41;97965.59;1869305;76;28100;-62
2022/03/30 08:19:25;;;;;;;1.70;1.60;;;;;;;24.07;34.38;97961.73;1889712;75;28164;-62
2022/03/30 08:22:26;;;;;;;1.50;1.40;;;;;;;24.08;34.36;97959.81;1880108;75;28280;-61
2022/03/30 08:25:15;;;;;;;1.60;1.50;;;;;;;24.06;34.38;97960.11;1897830;75;28106;-61
2022/03/30 08:28:05;;;;;;;1.70;1.50;;;;;;;24.07;34.41;97960.91;1857076;77;28179;-61
2022/03/30 08:30:53;;;;;;;1.40;1.27;;;;;;;24.07;34.38;97962.28;1891076;75;28143;-61
2022/03/30 08:33:42;;;;;;;1.50;1.40;;;;;;;24.05;34.37;97959.80;1878854;75;28151;-61
2022/03/30 08:36:31;;;;;;;1.40;1.40;;;;;;;24.10;34.29;97961.72;1857132;77;28252;-61
2022/03/30 08:39:20;;;;;;;1.75;1.37;;;;;;;24.11;34.30;97957.31;1869240;76;28229;-61
2022/03/30 08:42:10;;;;;;;1.80;1.70;;;;;;;24.14;34.27;97956.77;1878835;75;28191;-60
2022/03/30 08:45:00;;;;;;;2.40;1.60;;;;;;;24.10;34.30;97952.13;1878894;75;28129;-61
2022/03/30 08:47:49;;;;;;;1.47;1.40;;;;;;;24.12;34.26;97948.00;1885559;75;28171;-60
2022/03/30 08:50:37;;;;;;;1.55;1.45;;;;;;;24.17;34.19;97941.13;1857562;75;28258;-61
2022/03/30 08:53:28;;;;;;;1.60;1.50;;;;;;;24.15;34.20;97937.84;1890681;75;28115;-61
2022/03/30 08:56:17;;;;;;;1.60;1.40;;;;;;;24.16;34.16;97940.84;1866437;76;28272;-60
2022/03/30 08:59:06;;;;;;;1.20;1.20;;;;;;;24.17;34.15;97942.49;1869016;76;28284;-61
2022/03/30 09:01:57;;;;;;;1.62;1.52;;;;;;;24.20;34.14;97939.73;1879076;75;28098;-61
2022/03/30 09:04:45;;;;;;;1.50;1.40;;;;;;;24.20;34.12;97944.65;1891025;75;28205;-61
2022/03/30 09:07:34;;;;;;;1.50;1.40;;;;;;;24.21;34.08;97941.36;1877683;75;28234;-61
2022/03/30 09:10:28;;;;;;;1.50;1.37;;;;;;;24.16;34.16;97935.35;1886805;75;28113;-61
2022/03/30 09:13:20;;;;;;;1.65;1.55;;;;;;;24.18;34.12;97937.25;1878873;75;28143;-62
2022/03/30 09:16:10;;;;;;;1.55;1.40;;;;;;;24.17;34.13;97936.18;1872888;75;28792;-61
2022/03/30 09:19:10;;;;;;;2.60;1.32;;;;;;;24.16;34.19;97929.86;1878247;75;28285;-61
2022/03/30 09:22:00;;;;;;;1.40;1.40;;;;;;;24.18;34.14;97931.77;1883315;75;28196;-61
2022/03/30 09:24:48;;;;;;;1.60;1.50;;;;;;;24.19;34.13;97922.99;1882121;75;28168;-63
2022/03/30 09:27:39;;;;;;;1.40;1.30;;;;;;;24.22;34.08;97919.15;1867965;75;28229;-61
2022/03/30 09:30:28;;;;;;;1.30;1.30;;;;;;;24.21;34.09;97913.92;1878193;75;28184;-61
2022/03/30 09:33:20;;;;;;;1.40;1.30;;;;;;;24.16;34.07;97901.59;1864692;76;28085;-61
2022/03/30 09:36:11;;;;;;;1.47;1.37;;;;;;;24.23;34.04;97913.09;1857315;77;36315;-61
2022/03/30 09:38:59;;;;;;;1.57;1.47;;;;;;;24.27;34.00;97908.11;1872684;75;28137;-61
2022/03/30 09:41:52;;;;;;;1.55;1.40;;;;;;;24.25;34.04;97904.84;1867869;75;28109;-61
2022/03/30 09:44:52;;;;;;;1.42;1.32;;;;;;;24.27;34.06;97902.63;1901785;75;28253;-61
2022/03/30 09:47:41;;;;;;;1.80;1.50;;;;;;;24.26;34.03;97898.27;1869070;76;28212;-61
2022/03/30 09:50:29;;;;;;;1.77;1.40;;;;;;;24.19;34.03;97889.52;1878421;75;28159;-61
2022/03/30 09:53:20;;;;;;;1.37;1.27;;;;;;;24.22;34.10;97894.45;1871751;75;28176;-61
2022/03/30 09:56:11;;;;;;;1.57;1.47;;;;;;;24.21;34.10;97884.57;1870271;75;28127;-61
2022/03/30 09:59:01;;;;;;;1.30;1.30;;;;;;;24.25;34.06;97882.89;1882911;75;28106;-61
2022/03/30 10:01:50;;;;;;;1.67;1.50;;;;;;;24.22;34.07;97872.50;1861400;75;28143;-60
2022/03/30 10:04:40;;;;;;;1.60;1.50;;;;;;;24.26;34.05;97872.19;1862971;75;28205;-61
2022/03/30 10:07:29;;;;;;;1.40;1.30;;;;;;;24.26;34.04;97867.25;1880485;75;28231;-61
2022/03/30 10:10:20;;;;;;;1.60;1.50;;;;;;;24.27;34.05;97867.53;1857143;77;28190;-61
2022/03/30 10:13:10;;;;;;;1.50;1.40;;;;;;;24.29;34.01;97863.41;1890587;75;28197;-61
2022/03/30 10:15:59;;;;;;;1.30;1.30;;;;;;;24.27;34.03;97855.98;1893633;75;28104;-61
2022/03/30 10:18:51;;;;;;;1.50;1.40;;;;;;;24.28;34.04;97852.69;1889199;75;28177;-61
2022/03/30 10:22:07;;;;;;;1.30;1.30;;;;;;;24.25;34.02;97848.59;1868980;76;28122;-61
2022/03/30 10:25:02;;;;;;;1.40;1.30;;;;;;;24.24;34.02;97847.52;1869071;76;28094;-62
2022/03/30 10:27:56;;;;;;;1.50;1.40;;;;;;;24.19;34.08;97844.25;1827470;76;28292;-61
2022/03/30 10:30:46;;;;;;;1.40;1.30;;;;;;;24.19;34.09;97834.65;1868180;75;28198;-61
2022/03/30 10:33:39;;;;;;;1.70;1.60;;;;;;;24.19;34.08;97835.20;1896632;75;28099;-61
2022/03/30 10:36:30;;;;;;;1.25;1.15;;;;;;;24.20;34.10;97834.11;1885273;75;28167;-60
2022/03/30 10:39:27;;;;;;;1.50;1.40;;;;;;;24.19;34.08;97829.16;1869166;76;33020;-61
2022/03/30 10:42:12;;;;;;;2.45;1.40;;;;;;;24.22;34.05;97826.41;1896742;75;28138;-61
2022/03/30 10:45:03;;;;;;;1.40;1.30;;;;;;;24.23;34.01;97826.11;1901516;75;28197;-61
2022/03/30 10:48:17;;;;;;;1.35;1.32;;;;;;;24.22;34.01;97825.86;1901826;75;28106;-63
2022/03/30 10:51:14;;;;;;;1.57;1.47;;;;;;;24.22;34.02;97821.75;1901758;75;28143;-62
2022/03/30 10:54:03;;;;;;;1.30;1.20;;;;;;;24.18;34.05;97815.16;1881697;75;28221;-61
2022/03/30 10:56:52;;;;;;;1.30;1.20;;;;;;;24.17;34.06;97808.60;1877231;75;28167;-61
2022/03/30 10:59:44;;;;;;;1.50;1.40;;;;;;;24.20;34.03;97803.92;1901457;75;28101;-61
2022/03/30 11:02:35;;;;;;;1.30;1.20;;;;;;;24.18;34.06;97807.52;1901547;75;28123;-61
2022/03/30 11:05:28;;;;;;;1.55;1.45;;;;;;;24.15;34.10;97800.67;1901529;75;28185;-61
2022/03/30 11:08:36;;;;;;;1.75;1.60;;;;;;;24.17;34.03;97797.63;1873678;75;28133;-61
2022/03/30 11:11:39;;;;;;;1.80;1.70;;;;;;;24.12;34.09;97801.78;1805114;75;28198;-61
2022/03/30 11:14:26;;;;;;;1.62;1.52;;;;;;;24.13;34.13;97796.56;1865933;76;28211;-62
2022/03/30 11:17:17;;;;;;;1.42;1.32;;;;;;;24.14;34.08;97793.53;1887084;75;28209;-61
2022/03/30 11:20:09;;;;;;;1.35;1.25;;;;;;;24.15;34.09;97789.69;1887127;75;28183;-61
2022/03/30 11:23:00;;;;;;;1.57;1.25;;;;;;;24.16;34.03;97783.09;1900261;75;28175;-63
2022/03/30 11:25:52;;;;;;;2.40;1.70;;;;;;;24.22;33.97;97790.19;1901718;75;28217;-61
2022/03/30 11:28:41;;;;;;;1.42;1.32;;;;;;;24.20;33.98;97783.34;1881469;75;28124;-62
2022/03/30 11:31:30;;;;;;;1.82;1.40;;;;;;;24.18;33.98;97777.33;1883625;75;28212;-62
2022/03/30 11:34:32;;;;;;;1.52;1.42;;;;;;;24.16;34.00;97772.11;1870725;75;28272;-62
2022/03/30 11:37:23;;;;;;;1.50;1.40;;;;;;;24.15;34.02;97764.17;1875688;75;28184;-62
2022/03/30 11:40:20;;;;;;;1.40;1.30;;;;;;;24.17;33.97;97766.08;1879686;75;28248;-61
2022/03/30 11:43:10;;;;;;;1.90;1.47;;;;;;;24.17;33.97;97758.67;1880854;75;28210;-62
2022/03/30 11:46:00;;;;;;;1.20;1.20;;;;;;;24.17;33.95;97755.93;1869351;76;28174;-62
2022/03/30 11:48:49;;;;;;;17.23;15.68;;;;;;;24.20;33.90;97755.91;1890934;75;28184;-62
2022/03/30 11:51:37;;;;;;;3.12;2.10;;;;;;;24.18;33.92;97753.44;1867186;75;28226;-62
2022/03/30 11:54:27;;;;;;;1.72;1.52;;;;;;;24.22;33.88;97747.66;1875118;75;28223;-61
2022/03/30 11:57:17;;;;;;;2.05;1.75;;;;;;;24.20;33.85;97747.10;1869239;76;28191;-60
2022/03/30 12:00:09;;;;;;;1.67;1.57;;;;;;;24.23;33.83;97753.39;1897623;75;28150;-61
2022/03/30 12:03:02;;;;;;;1.40;1.30;;;;;;;24.22;33.85;97748.20;1899642;75;28129;-60
2022/03/30 12:05:58;;;;;;;1.60;1.50;;;;;;;24.23;33.78;97741.05;1864901;76;28184;-61
2022/03/30 12:08:49;;;;;;;1.55;1.45;;;;;;;24.22;33.80;97732.58;1869405;76;33163;-61
2022/03/30 12:11:37;;;;;;;1.40;1.30;;;;;;;24.21;33.80;97727.35;1874867;75;28102;-63
2022/03/30 12:14:29;;;;;;;1.47;1.30;;;;;;;24.25;33.80;97727.86;1877638;75;28138;-60
2022/03/30 12:17:26;;;;;;;1.47;1.40;;;;;;;24.23;33.76;97720.47;1888173;75;28238;-61
2022/03/30 12:20:17;;;;;;;1.72;1.35;;;;;;;24.26;33.73;97714.97;1901570;75;28134;-61
2022/03/30 12:23:09;;;;;;;1.65;1.55;;;;;;;24.27;33.75;97700.95;1863739;75;28374;-61
2022/03/30 12:25:57;;;;;;;1.42;1.32;;;;;;;24.27;33.72;97699.58;1873177;76;28275;-61
2022/03/30 12:28:45;;;;;;;1.45;1.20;;;;;;;24.26;33.71;97697.95;1857838;76;28389;-61
2022/03/30 12:31:48;;;;;;;1.40;1.30;;;;;;;24.26;33.75;97681.49;1876932;74;28077;-61
2022/03/30 12:34:34;;;;;;;1.47;1.40;;;;;;;24.28;33.70;97677.08;1871433;74;29097;-61
2022/03/30 12:37:24;;;;;;;1.50;1.40;;;;;;;24.27;33.74;97676.83;1868257;74;28094;-61
2022/03/30 12:40:15;;;;;;;1.50;1.40;;;;;;;24.27;33.69;97672.14;1889629;74;28189;-61
2022/03/30 12:43:04;;;;;;;1.47;1.30;;;;;;;24.28;33.70;97673.78;1892448;74;28370;-61
2022/03/30 12:46:03;;;;;;;1.30;1.30;;;;;;;24.29;33.68;97670.49;1859710;76;28299;-61
2022/03/30 12:48:46;;;;;;;1.53;1.43;;;;;;;24.31;33.66;97664.16;1857151;76;28206;-62
2022/03/30 12:51:36;;;;;;;2.30;1.40;;;;;;;24.31;33.63;97658.12;1881239;74;28281;-61
2022/03/30 12:54:25;;;;;;;1.70;1.40;;;;;;;24.31;33.64;97654.56;1882841;74;28278;-61
2022/03/30 12:57:15;;;;;;;1.50;1.40;;;;;;;24.33;33.62;97651.79;1859192;76;28275;-61
2022/03/30 13:00:22;;;;;;;1.90;1.20;;;;;;;24.32;33.63;97647.39;1857055;76;28268;-61
2022/03/30 13:03:16;;;;;;;1.30;1.30;;;;;;;24.32;33.66;97645.23;1856908;76;28247;-61
2022/03/30 13:06:18;;;;;;;1.40;1.30;;;;;;;24.31;33.62;97641.66;1856887;76;28775;-61
2022/03/30 13:09:18;;;;;;;1.52;1.42;;;;;;;24.29;33.64;97637.56;1860861;76;28274;-61
2022/03/30 13:12:06;;;;;;;1.30;1.30;;;;;;;24.31;33.63;97637.55;1861958;76;28817;-62
2022/03/30 13:14:55;;;;;;;1.37;1.30;;;;;;;24.30;33.62;97625.47;1868984;74;28449;-61
2022/03/30 13:18:02;;;;;;;1.60;1.50;;;;;;;24.29;33.61;97626.05;1863598;74;28264;-61
2022/03/30 13:20:59;;;;;;;1.40;1.30;;;;;;;24.30;33.63;97629.58;1897632;74;28103;-62
2022/03/30 13:23:50;;;;;;;1.37;1.20;;;;;;;24.29;33.65;97617.81;1881529;74;28241;-61
2022/03/30 13:26:41;;;;;;;1.22;1.22;;;;;;;24.27;33.70;97612.35;1885532;75;28221;-61
2022/03/30 13:29:30;;;;;;;1.50;1.40;;;;;;;24.29;33.65;97606.02;1857056;77;28252;-61
2022/03/30 13:32:19;;;;;;;1.20;1.20;;;;;;;24.30;33.60;97593.91;1889804;75;28180;-61
2022/03/30 13:35:08;;;;;;;1.57;1.47;;;;;;;24.30;33.59;97600.22;1857251;77;28154;-60
2022/03/30 13:37:56;;;;;;;1.30;1.30;;;;;;;24.31;33.61;97590.07;1854617;75;28150;-61
2022/03/30 13:40:46;;;;;;;1.40;1.30;;;;;;;24.31;33.60;97586.78;1858632;75;28208;-61
2022/03/30 13:43:34;;;;;;;1.32;1.32;;;;;;;24.28;33.61;97590.09;1847005;75;28184;-61
2022/03/30 13:46:23;;;;;;;1.20;1.20;;;;;;;24.29;33.64;97585.44;1864355;75;28301;-61
2022/03/30 13:49:12;;;;;;;1.30;1.30;;;;;;;24.29;33.60;97579.40;1826383;78;28319;-61
2022/03/30 13:52:00;;;;;;;1.37;1.27;;;;;;;24.30;33.62;97574.16;1875614;75;38592;-60
2022/03/30 13:54:50;;;;;;;1.30;1.20;;;;;;;24.28;33.57;97572.27;1841072;75;28267;-61
2022/03/30 13:57:38;;;;;;;1.10;1.10;;;;;;;24.27;33.62;97567.87;1872452;75;32165;-62
2022/03/30 14:00:28;;;;;;;1.35;1.25;;;;;;;24.28;33.61;97563.20;1848853;76;28263;-61
2022/03/30 14:03:16;;;;;;;1.25;1.22;;;;;;;24.29;33.60;97559.37;1828546;77;28324;-61
2022/03/30 14:06:06;;;;;;;1.32;1.22;;;;;;;24.26;33.60;97557.20;1891447;75;28168;-61
2022/03/30 14:08:55;;;;;;;1.10;1.10;;;;;;;24.25;33.63;97554.21;1857949;75;28279;-61
2022/03/30 14:11:44;;;;;;;1.40;1.30;;;;;;;24.22;33.67;97546.00;1844964;76;28265;-60
2022/03/30 14:14:34;;;;;;;1.27;1.27;;;;;;;24.23;33.65;97544.88;1862244;75;28179;-61
2022/03/30 14:17:23;;;;;;;1.32;1.30;;;;;;;24.25;33.62;97545.40;1859957;75;31164;-61
2022/03/30 14:20:12;;;;;;;1.20;1.20;;;;;;;24.24;33.62;97538.30;1856484;75;30080;-61
2022/03/30 14:23:00;;;;;;;1.87;1.37;;;;;;;24.23;33.62;97533.91;1846615;75;28255;-61
2022/03/30 14:25:50;;;;;;;1.60;1.50;;;;;;;24.23;33.64;97536.65;1893943;75;28123;-61
2022/03/30 14:28:38;;;;;;;1.40;1.30;;;;;;;24.24;33.61;97535.55;1876859;75;28667;-61
2022/03/30 14:31:27;;;;;;;1.45;1.40;;;;;;;24.24;33.60;97530.06;1887433;75;31240;-61
2022/03/30 14:34:15;;;;;;;1.80;1.40;;;;;;;24.20;33.60;97524.87;1877589;75;28082;-61
2022/03/30 14:37:04;;;;;;;1.40;1.40;;;;;;;24.21;33.63;97518.30;1898269;75;28216;-61
2022/03/30 14:39:52;;;;;;;1.42;1.32;;;;;;;24.20;33.65;97513.11;1888277;75;28097;-60
2022/03/30 14:42:41;;;;;;;1.45;1.30;;;;;;;24.21;33.63;97511.44;1850776;76;28210;-61
2022/03/30 14:45:29;;;;;;;1.10;1.10;;;;;;;24.23;33.62;97507.84;1869144;75;28211;-61
2022/03/30 14:48:18;;;;;;;1.55;1.45;;;;;;;24.24;33.60;97502.63;1890715;75;33322;-61
2022/03/30 14:51:07;;;;;;;1.40;1.40;;;;;;;24.25;33.60;97498.75;1845136;76;28307;-61
2022/03/30 14:53:57;;;;;;;1.40;1.30;;;;;;;24.25;33.57;97492.48;1849337;76;28234;-61
2022/03/30 14:56:45;;;;;;;1.20;1.20;;;;;;;24.26;33.55;97492.72;1846846;75;28145;-60
2022/03/30 14:59:34;;;;;;;1.70;1.60;;;;;;;24.22;33.56;97487.02;1856494;75;28254;-61
2022/03/30 15:02:22;;;;;;;1.42;1.32;;;;;;;24.22;33.56;97485.65;1851884;75;28204;-61
2022/03/30 15:05:11;;;;;;;1.05;1.05;;;;;;;24.23;33.59;97483.70;1873386;76;28268;-61
2022/03/30 15:07:59;;;;;;;1.50;1.40;;;;;;;24.22;33.61;97487.02;1839551;76;28319;-61
2022/03/30 15:10:48;;;;;;;1.20;1.20;;;;;;;24.23;33.61;97479.03;1837774;77;28404;-60
2022/03/30 15:13:36;;;;;;;1.20;1.20;;;;;;;24.22;33.59;97475.22;1852740;76;28249;-61
2022/03/30 15:16:26;;;;;;;1.30;1.20;;;;;;;24.26;33.56;97473.52;1840035;76;28244;-61
2022/03/30 15:19:15;;;;;;;1.40;1.30;;;;;;;24.26;33.55;97473.52;1839876;76;28397;-61
2022/03/30 15:22:05;;;;;;;1.50;1.30;;;;;;;24.26;33.54;97471.59;1841535;76;28328;-61
2022/03/30 15:24:54;;;;;;;1.40;1.30;;;;;;;24.26;33.52;97462.54;1866684;75;28202;-61
2022/03/30 15:27:43;;;;;;;1.75;1.40;;;;;;;24.28;33.47;97461.14;1884745;75;28319;-61
2022/03/30 15:30:32;;;;;;;1.47;1.37;;;;;;;24.28;33.52;97452.09;1880697;75;28151;-61
2022/03/30 15:33:20;;;;;;;1.50;1.40;;;;;;;24.28;33.50;97454.28;1835431;77;28387;-61
2022/03/30 15:36:09;;;;;;;1.27;1.23;;;;;;;24.29;33.51;97453.73;1849642;75;28360;-60
2022/03/30 15:38:58;;;;;;;1.50;1.30;;;;;;;24.29;33.48;97451.81;1846228;75;28179;-61
2022/03/30 15:41:47;;;;;;;1.47;1.40;;;;;;;24.28;33.50;97452.91;1877625;75;28214;-61
2022/03/30 15:44:35;;;;;;;1.55;1.45;;;;;;;24.28;33.49;97441.94;1870078;74;28097;-59
2022/03/30 15:47:23;;;;;;;1.30;1.20;;;;;;;24.29;33.47;97439.46;1837761;77;29311;-61
2022/03/30 15:50:13;;;;;;;1.40;1.40;;;;;;;24.32;33.46;97439.43;1858701;76;28256;-61
2022/03/30 15:53:02;;;;;;;1.40;1.30;;;;;;;24.31;33.44;97427.63;1858295;76;28274;-62
2022/03/30 15:55:57;;;;;;;1.90;1.77;;;;;;;24.32;33.44;97434.73;1866513;75;28152;-62
2022/03/30 15:58:41;;;;;;;1.52;1.42;;;;;;;24.33;33.44;97425.95;1852848;75;28285;-62
2022/03/30 16:01:30;;;;;;;1.50;1.40;;;;;;;24.33;33.37;97430.89;1888631;75;28151;-60
2022/03/30 16:04:18;;;;;;;1.70;1.60;;;;;;;24.33;33.42;97432.27;1880499;75;28332;-61
2022/03/30 16:07:08;;;;;;;1.40;1.30;;;;;;;24.32;33.45;97425.71;1848411;76;28387;-61
2022/03/30 16:09:56;;;;;;;2.10;1.17;;;;;;;24.29;33.46;97423.55;1876662;75;28163;-62
2022/03/30 16:12:44;;;;;;;1.20;1.20;;;;;;;24.28;33.44;97424.64;1858629;75;28256;-60
2022/03/30 16:15:33;;;;;;;1.20;1.20;;;;;;;24.26;33.50;97424.95;1881640;75;30209;-63
2022/03/30 16:18:22;;;;;;;1.43;1.33;;;;;;;24.26;33.51;97420.02;1849796;76;28301;-61
2022/03/30 16:21:10;;;;;;;1.50;1.40;;;;;;;24.25;33.49;97419.77;1896716;75;28192;-61
2022/03/30 16:23:59;;;;;;;1.70;1.20;;;;;;;24.24;33.53;97421.69;1859193;75;28176;-61
2022/03/30 16:26:48;;;;;;;1.52;1.30;;;;;;;24.24;33.51;97418.95;1861648;75;28230;-61
2022/03/30 16:29:37;;;;;;;1.40;1.22;;;;;;;24.25;33.50;97419.19;1850508;76;32229;-61
2022/03/30 16:32:26;;;;;;;1.30;1.20;;;;;;;24.23;33.51;97411.81;1830401;75;28162;-61
2022/03/30 16:35:15;;;;;;;1.30;1.20;;;;;;;24.26;33.45;97409.04;1890605;75;28093;-61
2022/03/30 16:38:03;;;;;;;1.30;1.20;;;;;;;24.24;33.46;97406.60;1841291;77;28355;-61